Hines Creek, Canada
Current Conditions -  °F | °C
As of 5:00 PM on Sunday 25 Jan 2015 (Local Time) from CYPE Reporting Station
Broken Clouds Broken Clouds  
Wind Chill:   Ceiling: 25000
Heat Index:   Visibility: 15mi
Dew Point: -2°   Wind: 20mph
Humidity: 57%   Direction: 270°W
Pressure: 29.71"   Gusts: 28mph
Location:  56.23°N, 118.6°W
Report Text: CYPE 260000Z 27017G24KT 15SM FEW100 BKN250 06/M02 A2971 RMK AC2CI4 SLP080
Loading
Personal Weather Stations






























Interactive Weather Map New forecast layout! Learn more

10-Day Weather Forecast

Advertisements
Track Severe Weather on mobile